Time;durP1;ratioP1;P1;durP2;ratioP2;P2;SDS_P1;SDS_P2;PMS_P1;PMS_P2;Temp;Humidity;BMP_temperature;BMP_pressure;BME280_temperature;BME280_humidity;BME280_pressure;Samples;Min_cycle;Max_cycle;Signal;HPM_P1;HPM_P2
2021/06/18 00:00:25;;;;;;;16.65;9.82;;;;;;;;;;5055779;28;20400;-89
2021/06/18 00:02:51;;;;;;;17.63;10.70;;;;;;;;;;5058691;28;20134;-89
2021/06/18 00:05:16;;;;;;;19.98;11.35;;;;;;;;;;5057258;28;20067;-90
2021/06/18 00:07:43;;;;;;;16.92;10.10;;;;;;;;;;5059651;28;20476;-89
2021/06/18 00:10:11;;;;;;;14.85;10.35;;;;;;;;;;5056984;28;20384;-88
2021/06/18 00:12:36;;;;;;;13.10;7.65;;;;;;;;;;5058151;28;20028;-89
2021/06/18 00:15:02;;;;;;;16.05;9.68;;;;;;;;;;5054828;28;20017;-89
2021/06/18 00:17:28;;;;;;;14.88;9.73;;;;;;;;;;5055144;28;20496;-89
2021/06/18 00:19:53;;;;;;;16.90;10.13;;;;;;;;;;5058193;28;20032;-89
2021/06/18 00:22:18;;;;;;;16.40;9.65;;;;;;;;;;5056695;28;20025;-89
2021/06/18 00:24:43;;;;;;;13.68;8.38;;;;;;;;;;5054069;28;20043;-89
2021/06/18 00:27:08;;;;;;;14.27;9.10;;;;;;;;;;5056312;28;20021;-89
2021/06/18 00:29:34;;;;;;;15.05;9.13;;;;;;;;;;5055553;28;20086;-89
2021/06/18 00:31:59;;;;;;;15.10;9.23;;;;;;;;;;5058720;28;20060;-89
2021/06/18 00:34:24;;;;;;;14.10;9.07;;;;;;;;;;5053923;28;20123;-90
2021/06/18 00:36:49;;;;;;;12.20;9.13;;;;;;;;;;5060327;28;20067;-89
2021/06/18 00:39:14;;;;;;;20.13;8.75;;;;;;;;;;5057215;28;20066;-89
2021/06/18 00:41:40;;;;;;;16.45;9.65;;;;;;;;;;5090723;28;20158;-88
2021/06/18 00:44:05;;;;;;;18.23;9.55;;;;;;;;;;5058805;28;20021;-89
2021/06/18 00:46:30;;;;;;;13.40;8.32;;;;;;;;;;5052633;28;20372;-89
2021/06/18 00:48:55;;;;;;;12.65;8.05;;;;;;;;;;5059127;28;20021;-90
2021/06/18 00:51:21;;;;;;;11.93;8.20;;;;;;;;;;5055242;28;20020;-89
2021/06/18 00:53:46;;;;;;;12.88;7.75;;;;;;;;;;5091400;28;20213;-89
2021/06/18 00:56:12;;;;;;;15.70;8.88;;;;;;;;;;5054436;28;20045;-89
2021/06/18 00:58:37;;;;;;;13.73;8.38;;;;;;;;;;5058222;28;20059;-89
2021/06/18 01:01:02;;;;;;;15.25;8.57;;;;;;;;;;5052509;28;20017;-88
2021/06/18 01:03:27;;;;;;;14.68;9.25;;;;;;;;;;5056736;28;20055;-88
2021/06/18 01:05:53;;;;;;;16.85;9.20;;;;;;;;;;5061049;28;20021;-89
2021/06/18 01:08:32;;;;;;;14.68;9.30;;;;;;;;;;5056176;28;20025;-89
2021/06/18 01:11:15;;;;;;;16.70;9.38;;;;;;;;;;5059834;28;20021;-89
2021/06/18 01:13:45;;;;;;;17.15;9.80;;;;;;;;;;5055353;28;20024;-88
2021/06/18 01:16:29;;;;;;;14.70;9.23;;;;;;;;;;5059199;28;20027;-88
2021/06/18 01:19:00;;;;;;;13.02;8.38;;;;;;;;;;5054891;28;20114;-88
2021/06/18 01:21:33;;;;;;;12.52;7.55;;;;;;;;;;5053306;28;20025;-88
2021/06/18 01:24:00;;;;;;;17.55;9.43;;;;;;;;;;5059128;28;20036;-89
2021/06/18 01:26:52;;;;;;;16.17;9.35;;;;;;;;;;5054398;28;20115;-89
2021/06/18 01:29:18;;;;;;;21.38;10.32;;;;;;;;;;5044161;28;20038;-89
2021/06/18 01:31:45;;;;;;;18.85;10.00;;;;;;;;;;5054880;28;20031;-88
2021/06/18 01:34:13;;;;;;;20.27;10.52;;;;;;;;;;5043094;28;20540;-87
2021/06/18 01:36:39;;;;;;;13.25;8.73;;;;;;;;;;5052956;28;20771;-89
2021/06/18 01:39:05;;;;;;;21.02;11.27;;;;;;;;;;5057436;28;20012;-88
2021/06/18 01:41:30;;;;;;;23.08;10.77;;;;;;;;;;5051014;28;20107;-89
2021/06/18 01:43:58;;;;;;;22.25;11.23;;;;;;;;;;5059856;28;20387;-89
2021/06/18 01:46:26;;;;;;;21.27;8.88;;;;;;;;;;5062485;28;20013;-89
2021/06/18 01:48:54;;;;;;;18.83;12.10;;;;;;;;;;5057072;28;20450;-89
2021/06/18 01:51:19;;;;;;;22.48;11.50;;;;;;;;;;5062198;28;20383;-89
2021/06/18 01:53:46;;;;;;;20.63;11.07;;;;;;;;;;5054334;28;20026;-89
2021/06/18 01:56:14;;;;;;;22.77;12.02;;;;;;;;;;5054121;28;20029;-89
2021/06/18 01:58:40;;;;;;;20.08;11.30;;;;;;;;;;5088416;28;20498;-88
2021/06/18 02:01:06;;;;;;;21.48;12.35;;;;;;;;;;5054596;28;20150;-90
2021/06/18 02:03:31;;;;;;;25.48;11.60;;;;;;;;;;5055788;28;20527;-90
2021/06/18 02:05:59;;;;;;;32.28;13.40;;;;;;;;;;5054437;28;20025;-87
2021/06/18 02:08:26;;;;;;;56.33;21.33;;;;;;;;;;5054204;28;20490;-88
2021/06/18 02:10:51;;;;;;;71.82;21.38;;;;;;;;;;5054280;28;20376;-87
2021/06/18 02:13:17;;;;;;;30.73;13.70;;;;;;;;;;5054120;28;20025;-87
2021/06/18 02:15:43;;;;;;;28.15;12.82;;;;;;;;;;5054275;28;20433;-86
2021/06/18 02:18:13;;;;;;;29.45;13.18;;;;;;;;;;5050357;28;20024;-87
2021/06/18 02:20:39;;;;;;;17.50;9.20;;;;;;;;;;5054404;28;20498;-88
2021/06/18 02:23:05;;;;;;;28.90;12.55;;;;;;;;;;5054176;28;20021;-89
2021/06/18 02:25:31;;;;;;;28.85;13.77;;;;;;;;;;5055452;28;20094;-88
2021/06/18 02:27:58;;;;;;;17.75;9.73;;;;;;;;;;5053793;28;20017;-89
2021/06/18 02:30:23;;;;;;;19.25;8.63;;;;;;;;;;5055094;28;20090;-89
2021/06/18 02:32:49;;;;;;;13.77;8.60;;;;;;;;;;5053856;28;20021;-89
2021/06/18 02:35:15;;;;;;;16.98;8.10;;;;;;;;;;5054045;28;20461;-89
2021/06/18 02:37:41;;;;;;;16.05;8.07;;;;;;;;;;5053639;28;20464;-90
2021/06/18 02:40:06;;;;;;;17.60;9.43;;;;;;;;;;5054847;28;20021;-89
2021/06/18 02:42:31;;;;;;;18.15;13.40;;;;;;;;;;5053167;28;20418;-88
2021/06/18 02:44:57;;;;;;;30.73;18.15;;;;;;;;;;5053358;28;20029;-89
2021/06/18 02:47:28;;;;;;;50.72;20.20;;;;;;;;;;5053444;28;20032;-87
2021/06/18 02:49:58;;;;;;;40.58;16.27;;;;;;;;;;5053644;28;20116;-87
2021/06/18 02:52:29;;;;;;;21.25;11.18;;;;;;;;;;5053205;28;20111;-88
2021/06/18 02:55:01;;;;;;;40.42;17.90;;;;;;;;;;5059584;28;20484;-89
2021/06/18 02:57:29;;;;;;;33.53;16.10;;;;;;;;;;5085725;28;20053;-89
2021/06/18 03:00:00;;;;;;;32.33;16.20;;;;;;;;;;5053471;28;20009;-89
2021/06/18 03:02:31;;;;;;;28.38;15.15;;;;;;;;;;5050032;28;20021;-89
2021/06/18 03:04:57;;;;;;;26.85;14.15;;;;;;;;;;5086831;28;20056;-89
2021/06/18 03:07:28;;;;;;;23.33;14.18;;;;;;;;;;5053262;28;20063;-89
2021/06/18 03:09:54;;;;;;;27.02;13.65;;;;;;;;;;5054454;28;20586;-88
2021/06/18 03:12:21;;;;;;;20.20;13.50;;;;;;;;;;5053421;28;20385;-89
2021/06/18 03:14:47;;;;;;;20.38;13.05;;;;;;;;;;5054527;28;20110;-89
2021/06/18 03:17:18;;;;;;;18.90;12.15;;;;;;;;;;5053083;28;20163;-90
2021/06/18 03:19:46;;;;;;;17.25;11.38;;;;;;;;;;5052900;28;20025;-89
2021/06/18 03:22:11;;;;;;;23.67;12.25;;;;;;;;;;5052920;28;20027;-89
2021/06/18 03:24:37;;;;;;;21.40;11.88;;;;;;;;;;5053234;28;20024;-88
2021/06/18 03:27:03;;;;;;;17.58;11.35;;;;;;;;;;5069819;28;20108;-89
2021/06/18 03:29:29;;;;;;;15.23;10.40;;;;;;;;;;5054061;28;20021;-89
2021/06/18 03:31:55;;;;;;;16.33;10.20;;;;;;;;;;5054002;28;20049;-89
2021/06/18 03:34:21;;;;;;;17.63;9.82;;;;;;;;;;5053860;28;20088;-89
2021/06/18 03:36:47;;;;;;;24.85;9.70;;;;;;;;;;5053819;28;20108;-89
2021/06/18 03:39:12;;;;;;;16.90;9.10;;;;;;;;;;5052862;28;20113;-89
2021/06/18 03:41:37;;;;;;;17.13;9.55;;;;;;;;;;5053748;28;20437;-89
2021/06/18 03:44:03;;;;;;;16.58;10.32;;;;;;;;;;5052470;28;20029;-88
2021/06/18 03:46:29;;;;;;;16.52;10.73;;;;;;;;;;5052393;28;20035;-89
2021/06/18 03:48:56;;;;;;;16.17;10.93;;;;;;;;;;5053327;28;20043;-89
2021/06/18 03:51:21;;;;;;;17.35;10.15;;;;;;;;;;5053785;28;20111;-89
2021/06/18 03:53:46;;;;;;;22.90;11.85;;;;;;;;;;5086112;28;20068;-88
2021/06/18 03:56:12;;;;;;;26.33;12.45;;;;;;;;;;5051989;28;20426;-89
2021/06/18 03:58:39;;;;;;;17.48;12.27;;;;;;;;;;5052221;28;20029;-89
2021/06/18 04:01:05;;;;;;;23.65;13.15;;;;;;;;;;5083612;28;20013;-89
2021/06/18 04:03:31;;;;;;;16.67;12.35;;;;;;;;;;5052108;28;20017;-89
2021/06/18 04:05:58;;;;;;;19.15;14.13;;;;;;;;;;5048441;28;20407;-89
2021/06/18 04:08:23;;;;;;;20.10;13.25;;;;;;;;;;5068935;28;20468;-89
2021/06/18 04:10:49;;;;;;;18.77;12.82;;;;;;;;;;5053208;28;20021;-89
2021/06/18 04:13:14;;;;;;;22.48;14.10;;;;;;;;;;5081189;28;20025;-88
2021/06/18 04:15:39;;;;;;;22.13;12.88;;;;;;;;;;5051933;28;20401;-88
2021/06/18 04:18:05;;;;;;;17.17;11.40;;;;;;;;;;5085440;28;20100;-89
2021/06/18 04:20:31;;;;;;;17.73;11.40;;;;;;;;;;5049870;28;20113;-88
2021/06/18 04:22:56;;;;;;;16.23;9.45;;;;;;;;;;5047058;28;20056;-87
2021/06/18 04:25:22;;;;;;;16.02;9.48;;;;;;;;;;5053068;28;20413;-88
2021/06/18 04:27:48;;;;;;;16.92;9.00;;;;;;;;;;5052057;28;20369;-88
2021/06/18 04:30:14;;;;;;;15.95;9.20;;;;;;;;;;5051579;28;20021;-88
2021/06/18 04:32:39;;;;;;;18.35;10.10;;;;;;;;;;5051748;28;20028;-88
2021/06/18 04:35:05;;;;;;;13.30;9.65;;;;;;;;;;5053106;28;20020;-88
2021/06/18 04:37:32;;;;;;;20.55;10.95;;;;;;;;;;5051475;28;20534;-87
2021/06/18 04:39:57;;;;;;;18.60;11.68;;;;;;;;;;5045692;28;20104;-88
2021/06/18 04:42:22;;;;;;;14.88;10.30;;;;;;;;;;5051333;28;20571;-89
2021/06/18 04:44:47;;;;;;;15.73;11.50;;;;;;;;;;5051111;28;20419;-89
2021/06/18 04:47:12;;;;;;;21.83;13.10;;;;;;;;;;5085036;28;20028;-88
2021/06/18 04:49:37;;;;;;;19.02;12.30;;;;;;;;;;5051269;28;20124;-88
2021/06/18 04:52:05;;;;;;;18.73;12.95;;;;;;;;;;5083828;28;20582;-88
2021/06/18 04:54:31;;;;;;;17.42;12.60;;;;;;;;;;5050865;28;20038;-89
2021/06/18 04:56:56;;;;;;;23.95;13.93;;;;;;;;;;5052023;28;20465;-88
2021/06/18 04:59:21;;;;;;;19.70;14.23;;;;;;;;;;5051071;28;20024;-88
2021/06/18 05:01:47;;;;;;;19.85;13.90;;;;;;;;;;5052078;28;20020;-88
2021/06/18 05:04:12;;;;;;;18.25;12.55;;;;;;;;;;5052466;28;20028;-88
2021/06/18 05:06:37;;;;;;;22.63;16.27;;;;;;;;;;5052376;28;20059;-88
2021/06/18 05:09:03;;;;;;;20.65;14.98;;;;;;;;;;5051050;28;20537;-89
2021/06/18 05:11:28;;;;;;;25.52;16.20;;;;;;;;;;5084473;28;20526;-88
2021/06/18 05:13:53;;;;;;;21.40;15.55;;;;;;;;;;5051999;28;20036;-88
2021/06/18 05:16:19;;;;;;;27.55;15.75;;;;;;;;;;5078615;28;20017;-89
2021/06/18 05:18:44;;;;;;;22.17;15.30;;;;;;;;;;5048535;28;20053;-88
2021/06/18 05:21:09;;;;;;;17.20;12.68;;;;;;;;;;5050770;28;20031;-89
2021/06/18 05:23:34;;;;;;;20.90;13.13;;;;;;;;;;5052388;28;20025;-88
2021/06/18 05:26:00;;;;;;;17.73;13.02;;;;;;;;;;5050698;28;20806;-89
2021/06/18 05:28:25;;;;;;;20.85;13.93;;;;;;;;;;5052176;28;20025;-88
2021/06/18 05:30:50;;;;;;;26.17;14.38;;;;;;;;;;5050445;28;20029;-88
2021/06/18 05:33:15;;;;;;;20.55;14.98;;;;;;;;;;5080333;28;20477;-88
2021/06/18 05:35:43;;;;;;;19.73;15.32;;;;;;;;;;5048497;28;20090;-89
2021/06/18 05:38:08;;;;;;;24.70;16.48;;;;;;;;;;5050305;28;20120;-89
2021/06/18 05:40:33;;;;;;;24.10;16.15;;;;;;;;;;5050528;28;20080;-89
2021/06/18 05:42:58;;;;;;;21.83;15.77;;;;;;;;;;5051544;28;20040;-89
2021/06/18 05:45:23;;;;;;;23.08;15.75;;;;;;;;;;5050645;28;20020;-88
2021/06/18 05:47:49;;;;;;;22.85;14.15;;;;;;;;;;5050798;28;20043;-88
2021/06/18 05:50:14;;;;;;;29.23;15.65;;;;;;;;;;5052421;28;20048;-88
2021/06/18 05:52:39;;;;;;;20.20;14.10;;;;;;;;;;5050293;28;20025;-89
2021/06/18 05:55:05;;;;;;;20.98;13.27;;;;;;;;;;5050084;28;20543;-89
2021/06/18 05:57:30;;;;;;;17.92;13.25;;;;;;;;;;5048692;28;20032;-88
2021/06/18 05:59:55;;;;;;;18.45;11.10;;;;;;;;;;5049323;28;20021;-89
2021/06/18 06:02:22;;;;;;;17.45;12.25;;;;;;;;;;5050159;28;20013;-89
2021/06/18 06:04:47;;;;;;;18.13;13.10;;;;;;;;;;5049784;28;20021;-88
2021/06/18 06:07:12;;;;;;;21.38;12.68;;;;;;;;;;5048483;28;20769;-88
2021/06/18 06:09:38;;;;;;;14.68;11.65;;;;;;;;;;5051527;28;20025;-88
2021/06/18 06:12:03;;;;;;;17.88;11.30;;;;;;;;;;5050375;28;20025;-88
2021/06/18 06:14:28;;;;;;;20.25;13.02;;;;;;;;;;5076117;28;20112;-88
2021/06/18 06:16:53;;;;;;;17.25;11.38;;;;;;;;;;5052102;28;20120;-88
2021/06/18 06:19:19;;;;;;;13.35;10.98;;;;;;;;;;5047422;28;20380;-88
2021/06/18 06:21:44;;;;;;;19.58;13.70;;;;;;;;;;5050035;28;20009;-88
2021/06/18 06:24:10;;;;;;;18.13;12.75;;;;;;;;;;5049832;28;20817;-89
2021/06/18 06:26:35;;;;;;;17.52;11.85;;;;;;;;;;5051263;28;20021;-88
2021/06/18 06:29:00;;;;;;;21.55;11.93;;;;;;;;;;5050152;28;20469;-88
2021/06/18 06:31:26;;;;;;;17.85;10.10;;;;;;;;;;5050605;28;20056;-88
2021/06/18 06:33:51;;;;;;;12.88;9.68;;;;;;;;;;5055147;28;20020;-88
2021/06/18 06:36:16;;;;;;;21.90;9.27;;;;;;;;;;5054767;28;20048;-88
2021/06/18 06:38:41;;;;;;;17.95;10.48;;;;;;;;;;5053349;28;20035;-88
2021/06/18 06:41:07;;;;;;;23.52;10.73;;;;;;;;;;5049253;28;20091;-89
2021/06/18 06:43:32;;;;;;;15.63;9.77;;;;;;;;;;5052029;28;20472;-90
2021/06/18 06:45:57;;;;;;;16.33;9.93;;;;;;;;;;5054430;28;20029;-89
2021/06/18 06:48:23;;;;;;;17.70;10.55;;;;;;;;;;5063436;28;20041;-89
2021/06/18 06:50:49;;;;;;;13.45;10.57;;;;;;;;;;5052331;28;20021;-90
2021/06/18 06:53:14;;;;;;;17.25;11.73;;;;;;;;;;5053218;28;20024;-89
2021/06/18 06:55:40;;;;;;;18.92;12.52;;;;;;;;;;5053136;28;20025;-89
2021/06/18 06:58:05;;;;;;;24.08;12.05;;;;;;;;;;5052910;28;20478;-89
2021/06/18 07:00:30;;;;;;;14.10;11.05;;;;;;;;;;5086995;28;20066;-88
2021/06/18 07:02:56;;;;;;;15.07;11.05;;;;;;;;;;5053777;28;20104;-89
2021/06/18 07:05:21;;;;;;;19.27;12.57;;;;;;;;;;5053317;28;20021;-89
2021/06/18 07:07:46;;;;;;;14.00;9.73;;;;;;;;;;5085635;28;20021;-89
2021/06/18 07:10:12;;;;;;;19.95;10.32;;;;;;;;;;5054770;28;20021;-89
2021/06/18 07:12:37;;;;;;;27.35;13.20;;;;;;;;;;5053135;28;20109;-89
2021/06/18 07:15:03;;;;;;;16.27;11.00;;;;;;;;;;5046615;28;20048;-89
2021/06/18 07:17:28;;;;;;;13.07;10.25;;;;;;;;;;5053029;28;20107;-89
2021/06/18 07:19:54;;;;;;;15.55;10.68;;;;;;;;;;5078383;28;20073;-89
2021/06/18 07:22:21;;;;;;;21.02;11.23;;;;;;;;;;5054089;28;20017;-89
2021/06/18 07:24:46;;;;;;;19.88;12.98;;;;;;;;;;5053935;28;20044;-89
2021/06/18 07:27:13;;;;;;;18.40;13.68;;;;;;;;;;5053190;28;20028;-89
2021/06/18 07:29:38;;;;;;;21.45;12.43;;;;;;;;;;5053030;28;20032;-89
2021/06/18 07:32:04;;;;;;;23.58;12.10;;;;;;;;;;5078162;28;20021;-89
2021/06/18 07:34:29;;;;;;;20.95;13.02;;;;;;;;;;5052836;28;20032;-89
2021/06/18 07:36:54;;;;;;;18.23;12.85;;;;;;;;;;5053558;28;20032;-88
2021/06/18 07:39:19;;;;;;;16.98;11.30;;;;;;;;;;5054012;28;20021;-89
2021/06/18 07:41:46;;;;;;;17.20;11.00;;;;;;;;;;5054147;28;20491;-89
2021/06/18 07:44:11;;;;;;;26.10;14.10;;;;;;;;;;5085124;28;20094;-89
2021/06/18 07:46:37;;;;;;;19.20;13.95;;;;;;;;;;5052586;28;20024;-89
2021/06/18 07:49:02;;;;;;;20.20;13.57;;;;;;;;;;5052273;28;20112;-88
2021/06/18 07:51:27;;;;;;;17.00;12.48;;;;;;;;;;5052222;28;20082;-88
2021/06/18 07:53:52;;;;;;;28.83;13.30;;;;;;;;;;5077794;28;20052;-88
2021/06/18 07:56:23;;;;;;;22.50;14.50;;;;;;;;;;5051937;28;20151;-88
2021/06/18 07:58:49;;;;;;;25.70;15.95;;;;;;;;;;5071989;28;20087;-88
2021/06/18 08:01:14;;;;;;;22.30;14.70;;;;;;;;;;5051600;28;20453;-89
2021/06/18 08:03:39;;;;;;;30.08;17.20;;;;;;;;;;5052371;28;20104;-88
2021/06/18 08:06:05;;;;;;;28.80;15.57;;;;;;;;;;5052163;28;20024;-89
2021/06/18 08:08:30;;;;;;;29.50;18.73;;;;;;;;;;5070569;28;20484;-89
2021/06/18 08:10:55;;;;;;;23.92;16.27;;;;;;;;;;5051911;28;20108;-89
2021/06/18 08:13:20;;;;;;;27.15;17.85;;;;;;;;;;5077262;28;20112;-89
2021/06/18 08:15:45;;;;;;;27.77;19.13;;;;;;;;;;5053083;28;20522;-88
2021/06/18 08:18:11;;;;;;;32.67;21.83;;;;;;;;;;5069575;28;20057;-89
2021/06/18 08:20:36;;;;;;;36.80;24.95;;;;;;;;;;5051414;28;20457;-88
2021/06/18 08:23:01;;;;;;;41.97;25.70;;;;;;;;;;5052102;28;20017;-89
2021/06/18 08:25:26;;;;;;;38.90;25.77;;;;;;;;;;5051971;28;20483;-90
2021/06/18 08:27:52;;;;;;;43.22;27.98;;;;;;;;;;5052046;28;20412;-89
2021/06/18 08:30:17;;;;;;;43.70;25.52;;;;;;;;;;5071185;28;20037;-88
2021/06/18 08:32:43;;;;;;;51.58;29.02;;;;;;;;;;5052606;28;20025;-90
2021/06/18 08:35:08;;;;;;;40.75;28.17;;;;;;;;;;5051690;28;20112;-89
2021/06/18 08:37:34;;;;;;;43.03;26.75;;;;;;;;;;5052532;28;20025;-89
2021/06/18 08:39:59;;;;;;;37.08;24.77;;;;;;;;;;5053085;28;20103;-89
2021/06/18 08:42:25;;;;;;;42.90;25.10;;;;;;;;;;5051547;28;20036;-89
2021/06/18 08:44:50;;;;;;;32.25;23.42;;;;;;;;;;5051133;28;20021;-89
2021/06/18 08:47:15;;;;;;;44.75;27.17;;;;;;;;;;5050875;28;20028;-89
2021/06/18 08:49:41;;;;;;;40.20;21.55;;;;;;;;;;5051974;28;20094;-89
2021/06/18 08:52:06;;;;;;;28.85;19.73;;;;;;;;;;5050787;28;20063;-89
2021/06/18 08:54:44;;;;;;;33.22;20.70;;;;;;;;;;5050631;28;20027;-88
2021/06/18 08:57:10;;;;;;;31.83;21.50;;;;;;;;;;5050760;28;20529;-89
2021/06/18 08:59:36;;;;;;;33.88;17.60;;;;;;;;;;5050130;28;20472;-88
2021/06/18 09:02:01;;;;;;;28.75;19.98;;;;;;;;;;5051741;28;20040;-89
2021/06/18 09:04:26;;;;;;;38.40;23.38;;;;;;;;;;5050668;28;20021;-88
2021/06/18 09:06:56;;;;;;;36.08;24.38;;;;;;;;;;5050183;28;20021;-89
2021/06/18 09:09:23;;;;;;;47.13;26.17;;;;;;;;;;5044815;28;20067;-89
2021/06/18 09:11:50;;;;;;;36.70;25.08;;;;;;;;;;5077387;28;20021;-88
2021/06/18 09:14:18;;;;;;;41.33;25.52;;;;;;;;;;5050131;28;20044;-89
2021/06/18 09:17:00;;;;;;;30.92;22.73;;;;;;;;;;5083748;28;20306;-88
2021/06/18 09:19:25;;;;;;;;;;;;;;;;;;5052360;28;20426;-88
2021/06/18 09:22:00;;;;;;;37.45;25.00;;;;;;;;;;5050508;28;20321;-88
2021/06/18 09:24:27;;;;;;;36.35;23.08;;;;;;;;;;5050228;28;20021;-87
2021/06/18 09:26:52;;;;;;;39.97;25.15;;;;;;;;;;5075348;28;20029;-88
2021/06/18 09:29:18;;;;;;;36.90;22.17;;;;;;;;;;5050122;28;20031;-89
2021/06/18 09:31:47;;;;;;;42.35;24.42;;;;;;;;;;5076191;28;20465;-88
2021/06/18 09:34:13;;;;;;;44.80;26.50;;;;;;;;;;5066656;28;20013;-87
2021/06/18 09:36:39;;;;;;;43.00;27.73;;;;;;;;;;5075348;28;20040;-88
2021/06/18 09:39:06;;;;;;;29.77;19.13;;;;;;;;;;5051241;28;20056;-89
2021/06/18 09:41:31;;;;;;;37.00;25.90;;;;;;;;;;5050049;28;20116;-89
2021/06/18 09:44:04;;;;;;;35.33;25.42;;;;;;;;;;5051168;28;20071;-88
2021/06/18 09:46:43;;;;;;;38.33;23.42;;;;;;;;;;5050022;28;20040;-89
2021/06/18 09:49:12;;;;;;;34.08;21.98;;;;;;;;;;5076693;28;20074;-88
2021/06/18 09:51:54;;;;;;;37.63;25.67;;;;;;;;;;5050059;28;20024;-89
2021/06/18 09:54:20;;;;;;;34.50;20.48;;;;;;;;;;5076240;28;20353;-89
2021/06/18 09:56:45;;;;;;;36.08;22.02;;;;;;;;;;5049667;28;20030;-88
2021/06/18 09:59:21;;;;;;;38.90;20.00;;;;;;;;;;5049422;28;20116;-88
2021/06/18 10:01:50;;;;;;;37.70;19.55;;;;;;;;;;5049855;28;20017;-89
2021/06/18 10:04:16;;;;;;;27.13;17.50;;;;;;;;;;5048536;28;20329;-89
2021/06/18 10:06:42;;;;;;;30.73;20.33;;;;;;;;;;5051033;28;20020;-89
2021/06/18 10:09:11;;;;;;;32.17;19.70;;;;;;;;;;5053810;28;20469;-89
2021/06/18 10:11:39;;;;;;;23.40;14.90;;;;;;;;;;5053865;28;20028;-89
2021/06/18 10:14:05;;;;;;;34.28;18.08;;;;;;;;;;5053725;28;20035;-89
2021/06/18 10:16:30;;;;;;;22.10;12.77;;;;;;;;;;5079296;28;20033;-89
2021/06/18 10:18:57;;;;;;;21.23;14.10;;;;;;;;;;5052824;28;20321;-88
2021/06/18 10:21:22;;;;;;;21.85;13.30;;;;;;;;;;5078893;28;20158;-89
2021/06/18 10:23:49;;;;;;;28.35;14.45;;;;;;;;;;5053682;28;20103;-89
2021/06/18 10:26:15;;;;;;;30.42;16.58;;;;;;;;;;5053124;28;20036;-89
2021/06/18 10:28:50;;;;;;;27.08;17.02;;;;;;;;;;5053684;28;20028;-89
2021/06/18 10:31:24;;;;;;;27.60;15.18;;;;;;;;;;5053302;28;20032;-89
2021/06/18 10:34:02;;;;;;;24.55;15.40;;;;;;;;;;5053774;28;20024;-89
2021/06/18 10:36:29;;;;;;;17.52;9.02;;;;;;;;;;5052889;28;20036;-90
2021/06/18 10:39:00;;;;;;;20.65;9.27;;;;;;;;;;5080072;28;20061;-90
2021/06/18 10:41:26;;;;;;;22.55;11.57;;;;;;;;;;5052511;28;20049;-89
2021/06/18 10:43:55;;;;;;;16.90;9.65;;;;;;;;;;5053257;28;20110;-90
2021/06/18 10:46:30;;;;;;;30.67;16.90;;;;;;;;;;5053378;28;20013;-90
2021/06/18 10:48:56;;;;;;;19.25;11.00;;;;;;;;;;5053969;28;20384;-91
2021/06/18 10:51:27;;;;;;;15.15;9.73;;;;;;;;;;5054543;28;20024;-90
2021/06/18 10:53:54;;;;;;;14.75;8.45;;;;;;;;;;5054042;28;20492;-90
2021/06/18 10:56:19;;;;;;;22.20;11.15;;;;;;;;;;5054321;28;20071;-90
2021/06/18 10:59:10;;;;;;;19.98;9.20;;;;;;;;;;5052675;28;20473;-90
2021/06/18 11:01:36;;;;;;;13.50;8.88;;;;;;;;;;5050926;28;20043;-90
2021/06/18 11:04:03;;;;;;;23.45;11.55;;;;;;;;;;5053376;28;20436;-90
2021/06/18 11:06:41;;;;;;;18.13;9.35;;;;;;;;;;5086886;28;20029;-91
2021/06/18 11:09:06;;;;;;;18.13;9.55;;;;;;;;;;5053477;28;20373;-90
2021/06/18 11:11:32;;;;;;;28.50;13.30;;;;;;;;;;5053238;28;20033;-90
2021/06/18 11:14:04;;;;;;;18.80;9.00;;;;;;;;;;5047791;28;20039;-90
2021/06/18 11:16:36;;;;;;;12.27;8.43;;;;;;;;;;5048832;28;20032;-91
2021/06/18 11:19:20;;;;;;;17.55;7.65;;;;;;;;;;5052263;28;20028;-91
2021/06/18 11:21:46;;;;;;;17.50;9.55;;;;;;;;;;5053951;28;20096;-90
2021/06/18 11:24:11;;;;;;;15.27;8.13;;;;;;;;;;5045013;28;20052;-91
2021/06/18 11:26:36;;;;;;;19.67;11.20;;;;;;;;;;5053305;28;20380;-91
2021/06/18 11:29:08;;;;;;;15.85;8.98;;;;;;;;;;5052172;28;20083;-90
2021/06/18 11:31:43;;;;;;;12.73;8.27;;;;;;;;;;5048355;28;20025;-91
2021/06/18 11:34:23;;;;;;;14.35;8.02;;;;;;;;;;5052764;28;20029;-90
2021/06/18 11:36:49;;;;;;;15.05;9.90;;;;;;;;;;5052562;28;20032;-90
2021/06/18 11:39:17;;;;;;;15.07;7.85;;;;;;;;;;5052738;28;20017;-90
2021/06/18 11:41:45;;;;;;;17.40;9.63;;;;;;;;;;5054201;28;20021;-90
2021/06/18 11:44:11;;;;;;;22.42;10.43;;;;;;;;;;5052378;28;20036;-90
2021/06/18 11:46:36;;;;;;;17.35;9.10;;;;;;;;;;5053244;28;20096;-90
2021/06/18 11:49:18;;;;;;;13.43;7.35;;;;;;;;;;5052301;28;20643;-90
2021/06/18 11:51:43;;;;;;;14.82;9.77;;;;;;;;;;5052560;28;20017;-90
2021/06/18 11:54:09;;;;;;;16.48;9.18;;;;;;;;;;5052068;28;20036;-90
2021/06/18 11:56:35;;;;;;;17.30;8.27;;;;;;;;;;5053149;28;20029;-90
2021/06/18 11:59:10;;;;;;;16.13;6.85;;;;;;;;;;5048400;28;20047;-90
2021/06/18 12:01:35;;;;;;;19.42;8.32;;;;;;;;;;5046739;28;20033;-90
2021/06/18 12:04:03;;;;;;;17.48;8.57;;;;;;;;;;5048168;28;20044;-88
2021/06/18 12:06:34;;;;;;;14.00;7.65;;;;;;;;;;5044372;28;20485;-89
2021/06/18 12:09:19;;;;;;;20.60;8.73;;;;;;;;;;5036634;28;20036;-89
2021/06/18 12:11:58;;;;;;;15.93;9.15;;;;;;;;;;5040694;28;20431;-88
2021/06/18 12:14:23;;;;;;;21.92;9.32;;;;;;;;;;5045221;28;20025;-89
2021/06/18 12:16:49;;;;;;;17.55;9.85;;;;;;;;;;5045717;28;20542;-90
2021/06/18 12:19:28;;;;;;;18.50;8.52;;;;;;;;;;5049702;28;20021;-89
2021/06/18 12:22:07;;;;;;;23.25;11.73;;;;;;;;;;5073131;28;20009;-89
2021/06/18 12:24:34;;;;;;;17.13;10.43;;;;;;;;;;5051192;28;20104;-82
2021/06/18 12:27:01;;;;;;;18.85;10.38;;;;;;;;;;5052681;28;20036;-82
2021/06/18 12:29:27;;;;;;;21.42;8.52;;;;;;;;;;5050761;28;20056;-83
2021/06/18 12:31:53;;;;;;;22.08;7.88;;;;;;;;;;5050757;28;20523;-82
2021/06/18 12:34:18;;;;;;;15.07;8.82;;;;;;;;;;5049821;28;20480;-82
2021/06/18 12:36:43;;;;;;;21.17;11.27;;;;;;;;;;5050188;28;20028;-82
2021/06/18 12:39:10;;;;;;;19.95;9.45;;;;;;;;;;5051083;28;20040;-82
2021/06/18 12:41:35;;;;;;;21.88;9.27;;;;;;;;;;5051921;28;20021;-82
2021/06/18 12:44:02;;;;;;;13.40;7.22;;;;;;;;;;5050337;28;20069;-82
2021/06/18 12:46:27;;;;;;;10.27;6.22;;;;;;;;;;5050264;28;20036;-82
2021/06/18 12:48:52;;;;;;;11.10;6.53;;;;;;;;;;5049413;28;20021;-82
2021/06/18 12:51:18;;;;;;;13.27;7.57;;;;;;;;;;5050465;28;20400;-82
2021/06/18 12:53:43;;;;;;;23.05;7.68;;;;;;;;;;5049239;28;20048;-82
2021/06/18 12:56:13;;;;;;;15.35;4.90;;;;;;;;;;5050912;28;20664;-82
2021/06/18 12:58:39;;;;;;;12.55;6.13;;;;;;;;;;5051417;28;20039;-82
2021/06/18 13:01:10;;;;;;;9.25;5.30;;;;;;;;;;5050587;28;20021;-82
2021/06/18 13:03:37;;;;;;;14.65;5.07;;;;;;;;;;5049528;28;20029;-82
2021/06/18 13:06:04;;;;;;;17.08;5.95;;;;;;;;;;5051333;28;20036;-82
2021/06/18 13:08:29;;;;;;;12.13;4.55;;;;;;;;;;5049810;28;20375;-83
2021/06/18 13:10:55;;;;;;;12.60;4.82;;;;;;;;;;5049192;28;20031;-82
2021/06/18 13:13:23;;;;;;;12.15;5.20;;;;;;;;;;5051751;28;20079;-82
2021/06/18 13:15:48;;;;;;;16.45;4.50;;;;;;;;;;5049803;28;20032;-82
2021/06/18 13:18:14;;;;;;;12.18;4.90;;;;;;;;;;5049864;28;20036;-82
2021/06/18 13:20:39;;;;;;;9.18;4.78;;;;;;;;;;5049133;28;20427;-82
2021/06/18 13:23:25;;;;;;;12.50;6.07;;;;;;;;;;5051056;28;20484;-82
2021/06/18 13:25:50;;;;;;;5.95;4.00;;;;;;;;;;5048548;28;20039;-83
2021/06/18 13:28:45;;;;;;;8.98;4.93;;;;;;;;;;5051253;28;20021;-83
2021/06/18 13:31:12;;;;;;;14.52;5.05;;;;;;;;;;5044975;28;20043;-83
2021/06/18 13:33:44;;;;;;;7.88;5.00;;;;;;;;;;5051101;28;20029;-83
2021/06/18 13:36:09;;;;;;;8.98;4.78;;;;;;;;;;5050697;28;20028;-83
2021/06/18 13:38:35;;;;;;;10.30;5.00;;;;;;;;;;5050821;28;20025;-82
2021/06/18 13:41:00;;;;;;;7.57;4.97;;;;;;;;;;5048917;28;20433;-82
2021/06/18 13:43:25;;;;;;;12.07;4.30;;;;;;;;;;5053914;28;20083;-82
2021/06/18 13:45:51;;;;;;;8.05;4.43;;;;;;;;;;5055197;28;20036;-83
2021/06/18 13:48:16;;;;;;;7.63;5.15;;;;;;;;;;5053122;28;20703;-83
2021/06/18 13:50:45;;;;;;;8.80;4.25;;;;;;;;;;5055036;28;20025;-83
2021/06/18 13:53:11;;;;;;;6.95;4.22;;;;;;;;;;5054890;28;20422;-81
2021/06/18 13:55:37;;;;;;;9.88;4.97;;;;;;;;;;5055004;28;20028;-81
2021/06/18 13:58:02;;;;;;;7.57;4.18;;;;;;;;;;5053474;28;20064;-82
2021/06/18 14:00:27;;;;;;;9.52;4.75;;;;;;;;;;5050604;28;20025;-81
2021/06/18 14:02:54;;;;;;;9.05;4.88;;;;;;;;;;5054643;28;20017;-83
2021/06/18 14:05:20;;;;;;;12.93;5.03;;;;;;;;;;5052715;28;20028;-83
2021/06/18 14:07:45;;;;;;;6.43;4.50;;;;;;;;;;5054841;28;20013;-82
2021/06/18 14:10:10;;;;;;;9.52;4.40;;;;;;;;;;5053107;28;20045;-83
2021/06/18 14:12:37;;;;;;;8.98;5.10;;;;;;;;;;5054983;28;20040;-82
2021/06/18 14:15:04;;;;;;;8.57;4.60;;;;;;;;;;5054152;28;20048;-83
2021/06/18 14:17:30;;;;;;;12.30;4.72;;;;;;;;;;5051643;28;20025;-82
2021/06/18 14:19:56;;;;;;;12.85;4.13;;;;;;;;;;5053604;28;20354;-82
2021/06/18 14:22:21;;;;;;;8.35;4.22;;;;;;;;;;5053863;28;20055;-82